Etusivu
METAR-TAF:

METAR-TAF

Lentoasemat :

Linköpingin lentoasema

Linköping, Ruotsi

Leveyspiiri: 58-24N, Pituuspiiri: 015-41E, korkeus merenpinnasta: 52 m

Tämänhetkinen sää

Tämä raportti tehtiin 31 minuuttia sitten, kello 11.50 UTC
tyyntä
Lämpötila 4°C
Kosteus 100%
Ilmanpaine 1002 hPa
Näkyvyys: 6000 m
Pilvistä 300 ft:n korkeudessa

METAR: ESSL 131150Z 00000KT 6000 OVC003 04/04 Q1002

Aika: 13:21 (12:21 UTC)

Sääennuste

Tämä raportti tehtiin 31 minuuttia sitten, kello 11.50 UTC
Ennuste voimassa 13. päivästä klo 12 UTC - 13. päivään klo 21 UTC
Tuuli 2 kn etelästä
Näkyvyys: 0500 m
200 ft:n korkeudessa
sumua
Ajoittain
13. päivästä klo 12 UTC - 13. päivään klo 21 UTC
Näkyvyys: 6000 m
Hajanaisia pilviä 300 ft:n korkeudessa
Hajonneita pilviä 2500 ft:n korkeudessa

TAF: ESSL 131150Z 1312/1321 18002KT 0500 FG VV002 TEMPO 1312/1321 6000 SCT003 BKN025

Säähavainnot ja -ennusteet yli 4000 lentoasemalta (METAR- ja TAF-raportit).

Käytössä olevat sääasemat on merkitty karttaan keltaisilla ja punaisilla pisteillä.

Aseta hiiri pisteen päälle nähdäksesi sääaseman nimen.

Klikkaa sitten nähdäksesi säähavainnot ja -ennusteet.

Kartan vaihtaminen: klikkaa mustalla rastilla varustettuja vihreitä pisteitä, niin voit zoomata sisään; viivalla varustettua vihreää pistettä, niin voit zoomata ulos tai vihreitä nuolia, niin pääset viereisille kartoille.


METAR-TAF: